createdAt,value
2022-08-21T00:02:31.033Z,13.39
2022-08-21T00:07:53.431Z,13.33
2022-08-21T00:13:18.739Z,13.29
2022-08-21T00:18:40.753Z,13.25
2022-08-21T00:24:03.035Z,13.06
2022-08-21T00:29:25.484Z,13.05
2022-08-21T00:34:47.474Z,13.01
2022-08-21T00:40:13.522Z,13.11
2022-08-21T00:45:36.487Z,13.01
2022-08-21T00:51:13.533Z,12.94
2022-08-21T00:56:35.745Z,12.73
2022-08-21T01:01:57.812Z,12.99
2022-08-21T01:07:21.514Z,12.96
2022-08-21T01:12:45.324Z,12.96
2022-08-21T01:18:09.785Z,12.95
2022-08-21T01:23:31.894Z,12.67
2022-08-21T01:29:01.361Z,12.81
2022-08-21T01:34:23.162Z,12.83
2022-08-21T01:39:46.676Z,12.76
2022-08-21T01:45:09.664Z,12.76
2022-08-21T01:50:32.214Z,12.70
2022-08-21T01:55:54.015Z,12.58
2022-08-21T02:01:16.621Z,12.69
2022-08-21T02:06:39.595Z,12.53
2022-08-21T02:12:02.116Z,12.66
2022-08-21T02:17:24.245Z,12.65
2022-08-21T02:22:46.554Z,12.54
2022-08-21T02:28:12.307Z,12.58
2022-08-21T02:33:35.217Z,12.53
2022-08-21T02:38:57.645Z,12.35
2022-08-21T02:44:20.067Z,12.65
2022-08-21T02:49:41.675Z,12.45
2022-08-21T02:55:03.715Z,12.65
2022-08-21T03:00:29.785Z,12.61
2022-08-21T03:05:53.064Z,12.54
2022-08-21T03:11:16.425Z,12.64
2022-08-21T03:16:38.476Z,12.69
2022-08-21T03:22:00.795Z,12.51
2022-08-21T03:27:28.152Z,12.72
2022-08-21T03:32:52.455Z,12.80
2022-08-21T03:38:14.675Z,12.87
2022-08-21T03:43:37.750Z,12.96
2022-08-21T03:48:59.734Z,13.05
2022-08-21T03:54:21.955Z,13.21
2022-08-21T03:59:44.834Z,13.30
2022-08-21T04:05:09.311Z,13.68
2022-08-21T04:10:33.766Z,13.68
2022-08-21T04:15:57.066Z,13.96
2022-08-21T04:21:18.741Z,14.34
2022-08-21T04:26:46.345Z,14.18
2022-08-21T04:32:08.364Z,15.03
2022-08-21T04:37:30.554Z,15.96
2022-08-21T04:43:07.396Z,16.37
2022-08-21T04:48:32.474Z,16.98
2022-08-21T04:53:59.095Z,17.50
2022-08-21T04:59:36.981Z,18.04
2022-08-21T05:05:01.066Z,18.70
2022-08-21T05:10:24.115Z,19.09
2022-08-21T05:15:46.523Z,19.75
2022-08-21T05:21:08.367Z,20.22
2022-08-21T05:26:31.245Z,20.76
2022-08-21T05:31:54.013Z,20.75
2022-08-21T05:37:16.164Z,21.24
2022-08-21T05:42:38.358Z,21.58
2022-08-21T05:48:11.918Z,21.86
2022-08-21T05:53:34.184Z,22.25
2022-08-21T05:58:57.121Z,22.51
2022-08-21T06:04:19.681Z,22.94
2022-08-21T06:09:42.436Z,23.18
2022-08-21T06:15:04.681Z,23.37
2022-08-21T06:20:27.017Z,23.68
2022-08-21T06:25:48.642Z,23.93
2022-08-21T06:31:19.546Z,24.24
2022-08-21T06:36:41.304Z,24.54
2022-08-21T06:42:03.807Z,24.49
2022-08-21T06:47:26.062Z,24.55
2022-08-21T06:52:48.447Z,24.87
2022-08-21T06:58:11.502Z,25.12
2022-08-21T07:03:37.212Z,25.13
2022-08-21T07:08:59.297Z,25.32
2022-08-21T07:14:22.435Z,25.26
2022-08-21T07:19:47.634Z,25.47
2022-08-21T07:25:10.568Z,25.66
2022-08-21T07:30:33.642Z,25.36
2022-08-21T07:35:56.628Z,25.56
2022-08-21T07:41:22.875Z,25.62
2022-08-21T07:46:44.917Z,25.62
2022-08-21T07:52:07.617Z,25.48
2022-08-21T07:57:30.627Z,25.49
2022-08-21T08:02:55.772Z,25.58
2022-08-21T08:08:18.607Z,26.01
2022-08-21T08:13:49.930Z,25.88
2022-08-21T08:19:11.887Z,25.92
2022-08-21T08:24:39.687Z,25.90
2022-08-21T08:30:01.877Z,25.90
2022-08-21T08:35:26.623Z,25.94
2022-08-21T08:41:22.746Z,25.67
2022-08-21T08:46:51.942Z,25.84
2022-08-21T08:52:32.562Z,25.92
2022-08-21T08:57:56.547Z,25.94
2022-08-21T09:03:19.047Z,26.04
2022-08-21T09:08:51.169Z,26.06
2022-08-21T09:14:42.507Z,25.97
2022-08-21T09:20:37.011Z,25.88
2022-08-21T09:26:08.588Z,25.90
2022-08-21T09:31:37.731Z,25.87
2022-08-21T09:37:00.480Z,26.01
2022-08-21T09:42:30.690Z,26.09
2022-08-21T09:47:53.067Z,25.99
2022-08-21T09:53:25.650Z,25.62
2022-08-21T09:58:50.326Z,25.69
2022-08-21T10:04:12.707Z,25.85
2022-08-21T10:09:35.427Z,26.05
2022-08-21T10:15:23.249Z,25.92
2022-08-21T10:20:54.826Z,25.93
2022-08-21T10:26:39.086Z,26.29
2022-08-21T10:32:25.905Z,26.12
2022-08-21T10:38:33.469Z,26.25
2022-08-21T10:44:23.651Z,26.18
2022-08-21T10:50:03.171Z,26.18
2022-08-21T10:55:35.734Z,26.00
2022-08-21T11:01:12.536Z,26.27
2022-08-21T11:07:17.172Z,26.51
2022-08-21T11:12:48.066Z,26.44
2022-08-21T11:18:24.080Z,26.37
2022-08-21T11:23:56.155Z,26.36
2022-08-21T11:29:25.167Z,26.48
2022-08-21T11:35:09.183Z,26.38
2022-08-21T11:40:55.270Z,26.42
2022-08-21T11:46:30.182Z,26.46
2022-08-21T11:52:16.814Z,26.58
2022-08-21T11:57:48.754Z,26.63
2022-08-21T12:03:19.435Z,26.73
2022-08-21T12:08:45.670Z,26.48
2022-08-21T12:14:10.810Z,26.78
2022-08-21T12:19:34.047Z,26.64
2022-08-21T12:25:10.592Z,26.66
2022-08-21T12:30:41.426Z,26.47
2022-08-21T12:36:20.162Z,26.52
2022-08-21T12:41:51.223Z,26.80
2022-08-21T12:47:33.327Z,26.58
2022-08-21T12:53:20.333Z,26.69
2022-08-21T12:59:11.610Z,26.68
2022-08-21T13:04:43.334Z,26.43
2022-08-21T13:10:19.895Z,26.80
2022-08-21T13:15:47.719Z,26.66
2022-08-21T13:21:16.016Z,26.56
2022-08-21T13:26:38.015Z,26.59
2022-08-21T13:32:03.447Z,26.56
2022-08-21T13:37:28.156Z,26.53
2022-08-21T13:42:50.555Z,26.52
2022-08-21T13:48:12.427Z,26.44
2022-08-21T13:53:47.214Z,26.41
2022-08-21T13:59:09.148Z,26.34
2022-08-21T14:04:40.492Z,26.24
2022-08-21T14:10:13.748Z,26.02
2022-08-21T14:15:39.959Z,25.74
2022-08-21T14:21:18.017Z,25.81
2022-08-21T14:26:52.068Z,25.75
2022-08-21T14:32:33.027Z,25.48
2022-08-21T14:37:55.914Z,25.41
2022-08-21T14:43:27.945Z,25.44
2022-08-21T14:49:12.457Z,25.43
2022-08-21T14:54:43.117Z,25.30
2022-08-21T15:00:17.917Z,25.42
2022-08-21T15:05:40.107Z,25.41
2022-08-21T15:11:12.002Z,25.43
2022-08-21T15:16:37.805Z,25.33
2022-08-21T15:21:59.841Z,25.16
2022-08-21T15:27:23.497Z,24.91
2022-08-21T15:32:45.537Z,24.75
2022-08-21T15:38:07.627Z,24.80
2022-08-21T15:43:59.502Z,24.66
2022-08-21T15:49:21.427Z,24.50
2022-08-21T15:54:43.785Z,24.29
2022-08-21T16:00:16.326Z,24.25
2022-08-21T16:05:38.077Z,24.07
2022-08-21T16:11:02.016Z,23.58
2022-08-21T16:16:25.756Z,23.50
2022-08-21T16:21:48.400Z,23.22
2022-08-21T16:27:11.081Z,23.03
2022-08-21T16:32:33.174Z,22.85
2022-08-21T16:37:55.766Z,23.07
2022-08-21T16:43:18.674Z,22.64
2022-08-21T16:48:42.646Z,22.18
2022-08-21T16:54:05.045Z,21.73
2022-08-21T16:59:27.710Z,21.51
2022-08-21T17:04:50.208Z,21.31
2022-08-21T17:10:14.641Z,21.20
2022-08-21T17:15:38.159Z,21.12
2022-08-21T17:20:59.936Z,20.95
2022-08-21T17:26:21.712Z,20.70
2022-08-21T17:31:45.123Z,20.62
2022-08-21T17:37:09.557Z,20.40
2022-08-21T17:42:31.394Z,19.89
2022-08-21T17:47:53.980Z,19.79
2022-08-21T17:53:15.704Z,20.19
2022-08-21T17:58:38.231Z,20.09
2022-08-21T18:04:00.076Z,19.97
2022-08-21T18:09:23.732Z,19.34
2022-08-21T18:14:45.840Z,19.35
2022-08-21T18:20:08.793Z,19.34
2022-08-21T18:25:31.725Z,19.26
2022-08-21T18:30:55.482Z,18.85
2022-08-21T18:36:17.521Z,18.98
2022-08-21T18:41:39.966Z,18.72
2022-08-21T18:47:08.127Z,18.99
2022-08-21T18:52:31.314Z,19.00
2022-08-21T18:57:56.117Z,18.45
2022-08-21T19:03:23.930Z,18.68
2022-08-21T19:08:46.246Z,18.65
2022-08-21T19:14:15.823Z,18.49
2022-08-21T19:19:39.331Z,18.29
2022-08-21T19:25:01.718Z,18.23
2022-08-21T19:30:24.234Z,18.23
2022-08-21T19:35:47.454Z,18.07
2022-08-21T19:41:17.205Z,18.07
2022-08-21T19:46:42.417Z,18.04
2022-08-21T19:52:13.005Z,17.80
2022-08-21T19:57:46.756Z,17.82
2022-08-21T20:03:09.503Z,17.79
2022-08-21T20:08:32.144Z,17.28
2022-08-21T20:13:55.137Z,17.29
2022-08-21T20:19:20.398Z,17.59
2022-08-21T20:24:43.135Z,17.17
2022-08-21T20:30:07.003Z,17.34
2022-08-21T20:35:29.495Z,16.97
2022-08-21T20:40:53.295Z,17.20
2022-08-21T20:46:25.534Z,16.99
2022-08-21T20:51:52.845Z,16.96
2022-08-21T20:57:35.113Z,17.28
2022-08-21T21:03:17.321Z,16.97
2022-08-21T21:08:49.635Z,17.12
2022-08-21T21:14:25.344Z,17.30
2022-08-21T21:19:53.766Z,17.20
2022-08-21T21:25:40.098Z,17.31
2022-08-21T21:31:03.901Z,17.31
2022-08-21T21:36:43.982Z,17.28
2022-08-21T21:42:30.105Z,17.15
2022-08-21T21:48:23.264Z,17.28
2022-08-21T21:54:09.695Z,17.07
2022-08-21T21:59:51.974Z,17.28
2022-08-21T22:05:38.087Z,17.09
2022-08-21T22:11:24.079Z,17.28
2022-08-21T22:16:50.355Z,17.28
2022-08-21T22:22:25.942Z,17.28
2022-08-21T22:27:53.526Z,17.27
2022-08-21T22:33:25.281Z,17.21
2022-08-21T22:38:50.845Z,17.17
2022-08-21T22:50:34.356Z,17.04
2022-08-21T22:55:59.206Z,17.02
2022-08-21T23:01:20.986Z,16.99
2022-08-21T23:06:46.650Z,16.95
2022-08-21T23:12:33.217Z,16.93
2022-08-21T23:18:25.992Z,16.79
2022-08-21T23:30:08.784Z,16.93
2022-08-21T23:35:51.827Z,16.96
2022-08-21T23:41:34.285Z,16.77
2022-08-21T23:46:56.475Z,16.96
2022-08-21T23:52:49.925Z,16.89
2022-08-21T23:58:38.405Z,16.95
